sensor_id;sensor_type;location;lat;lon;timestamp;P1;durP1;ratioP1;P2;durP2;ratioP2
69623;SDS011;56843;52.020;5.670;2023-02-12T00:00:38;14.53;;;6.47;;
69623;SDS011;56843;52.020;5.670;2023-02-12T00:02:12;12.32;;;6.38;;
69623;SDS011;56843;52.020;5.670;2023-02-12T00:03:43;15.85;;;7.45;;
69623;SDS011;56843;52.020;5.670;2023-02-12T00:05:14;15.83;;;7.70;;
69623;SDS011;56843;52.020;5.670;2023-02-12T00:06:45;17.45;;;7.35;;
69623;SDS011;56843;52.020;5.670;2023-02-12T00:08:16;18.98;;;6.78;;
69623;SDS011;56843;52.020;5.670;2023-02-12T00:09:46;17.23;;;6.80;;
69623;SDS011;56843;52.020;5.670;2023-02-12T00:11:17;15.73;;;7.43;;
69623;SDS011;56843;52.020;5.670;2023-02-12T00:12:52;12.27;;;5.97;;
69623;SDS011;56843;52.020;5.670;2023-02-12T00:14:23;19.25;;;7.03;;
69623;SDS011;56843;52.020;5.670;2023-02-12T00:15:54;14.63;;;7.17;;
69623;SDS011;56843;52.020;5.670;2023-02-12T00:17:24;13.35;;;7.03;;
69623;SDS011;56843;52.020;5.670;2023-02-12T00:18:55;17.70;;;7.40;;
69623;SDS011;56843;52.020;5.670;2023-02-12T00:20:27;13.13;;;6.60;;
69623;SDS011;56843;52.020;5.670;2023-02-12T00:21:57;14.97;;;7.13;;
69623;SDS011;56843;52.020;5.670;2023-02-12T00:23:28;13.98;;;6.82;;
69623;SDS011;56843;52.020;5.670;2023-02-12T00:24:58;18.37;;;6.67;;
69623;SDS011;56843;52.020;5.670;2023-02-12T00:26:29;14.23;;;6.88;;
69623;SDS011;56843;52.020;5.670;2023-02-12T00:28:00;16.90;;;7.10;;
69623;SDS011;56843;52.020;5.670;2023-02-12T00:29:30;13.90;;;7.25;;
69623;SDS011;56843;52.020;5.670;2023-02-12T00:31:05;19.97;;;8.10;;
69623;SDS011;56843;52.020;5.670;2023-02-12T00:32:37;16.02;;;7.40;;
69623;SDS011;56843;52.020;5.670;2023-02-12T00:34:08;15.83;;;7.20;;
69623;SDS011;56843;52.020;5.670;2023-02-12T00:35:40;21.05;;;7.30;;
69623;SDS011;56843;52.020;5.670;2023-02-12T00:37:11;17.15;;;7.68;;
69623;SDS011;56843;52.020;5.670;2023-02-12T00:38:42;19.53;;;7.07;;
69623;SDS011;56843;52.020;5.670;2023-02-12T00:40:13;15.00;;;7.67;;
69623;SDS011;56843;52.020;5.670;2023-02-12T00:41:44;14.45;;;7.07;;
69623;SDS011;56843;52.020;5.670;2023-02-12T00:43:14;19.40;;;7.67;;
69623;SDS011;56843;52.020;5.670;2023-02-12T00:44:45;17.13;;;8.02;;
69623;SDS011;56843;52.020;5.670;2023-02-12T00:46:15;14.83;;;7.07;;
69623;SDS011;56843;52.020;5.670;2023-02-12T00:47:47;17.45;;;7.72;;
69623;SDS011;56843;52.020;5.670;2023-02-12T00:49:18;16.23;;;7.80;;
69623;SDS011;56843;52.020;5.670;2023-02-12T00:50:49;18.90;;;8.63;;
69623;SDS011;56843;52.020;5.670;2023-02-12T00:52:20;19.73;;;8.18;;
69623;SDS011;56843;52.020;5.670;2023-02-12T00:53:50;19.57;;;8.77;;
69623;SDS011;56843;52.020;5.670;2023-02-12T00:55:21;18.52;;;8.43;;
69623;SDS011;56843;52.020;5.670;2023-02-12T00:56:52;20.80;;;8.00;;
69623;SDS011;56843;52.020;5.670;2023-02-12T00:58:23;15.98;;;7.88;;
69623;SDS011;56843;52.020;5.670;2023-02-12T00:59:54;21.58;;;9.02;;
69623;SDS011;56843;52.020;5.670;2023-02-12T01:01:24;19.37;;;9.23;;
69623;SDS011;56843;52.020;5.670;2023-02-12T01:02:55;21.10;;;8.87;;
69623;SDS011;56843;52.020;5.670;2023-02-12T01:04:25;14.75;;;7.88;;
69623;SDS011;56843;52.020;5.670;2023-02-12T01:05:58;20.13;;;8.43;;
69623;SDS011;56843;52.020;5.670;2023-02-12T01:07:28;18.03;;;8.43;;
69623;SDS011;56843;52.020;5.670;2023-02-12T01:08:59;15.75;;;8.25;;
69623;SDS011;56843;52.020;5.670;2023-02-12T01:10:31;14.15;;;8.00;;
69623;SDS011;56843;52.020;5.670;2023-02-12T01:12:02;17.70;;;8.73;;
69623;SDS011;56843;52.020;5.670;2023-02-12T01:13:33;14.87;;;7.27;;
69623;SDS011;56843;52.020;5.670;2023-02-12T01:15:04;16.85;;;7.72;;
69623;SDS011;56843;52.020;5.670;2023-02-12T01:16:34;15.70;;;7.93;;
69623;SDS011;56843;52.020;5.670;2023-02-12T01:18:06;17.48;;;8.10;;
69623;SDS011;56843;52.020;5.670;2023-02-12T01:19:36;17.03;;;7.87;;
69623;SDS011;56843;52.020;5.670;2023-02-12T01:21:07;17.13;;;7.20;;
69623;SDS011;56843;52.020;5.670;2023-02-12T01:22:42;17.17;;;7.93;;
69623;SDS011;56843;52.020;5.670;2023-02-12T01:24:13;16.13;;;7.82;;
69623;SDS011;56843;52.020;5.670;2023-02-12T01:25:44;16.17;;;7.20;;
69623;SDS011;56843;52.020;5.670;2023-02-12T01:27:15;17.73;;;7.50;;
69623;SDS011;56843;52.020;5.670;2023-02-12T01:28:49;18.70;;;8.30;;
69623;SDS011;56843;52.020;5.670;2023-02-12T01:30:22;15.97;;;8.13;;
69623;SDS011;56843;52.020;5.670;2023-02-12T01:31:54;17.33;;;8.07;;
69623;SDS011;56843;52.020;5.670;2023-02-12T01:33:25;19.30;;;7.88;;
69623;SDS011;56843;52.020;5.670;2023-02-12T01:34:55;19.50;;;8.37;;
69623;SDS011;56843;52.020;5.670;2023-02-12T01:36:27;19.30;;;7.70;;
69623;SDS011;56843;52.020;5.670;2023-02-12T01:37:59;16.15;;;8.38;;
69623;SDS011;56843;52.020;5.670;2023-02-12T01:39:30;17.13;;;8.88;;
69623;SDS011;56843;52.020;5.670;2023-02-12T01:42:35;19.23;;;7.90;;
69623;SDS011;56843;52.020;5.670;2023-02-12T01:45:44;18.42;;;8.18;;
69623;SDS011;56843;52.020;5.670;2023-02-12T01:47:16;18.07;;;8.17;;
69623;SDS011;56843;52.020;5.670;2023-02-12T01:48:47;19.60;;;8.67;;
69623;SDS011;56843;52.020;5.670;2023-02-12T01:50:18;17.35;;;7.97;;
69623;SDS011;56843;52.020;5.670;2023-02-12T01:51:51;15.07;;;7.78;;
69623;SDS011;56843;52.020;5.670;2023-02-12T01:53:29;15.73;;;8.10;;
69623;SDS011;56843;52.020;5.670;2023-02-12T01:55:04;15.68;;;8.32;;
69623;SDS011;56843;52.020;5.670;2023-02-12T01:56:38;17.40;;;8.13;;
69623;SDS011;56843;52.020;5.670;2023-02-12T01:58:09;14.47;;;7.50;;
69623;SDS011;56843;52.020;5.670;2023-02-12T01:59:39;17.40;;;8.18;;
69623;SDS011;56843;52.020;5.670;2023-02-12T02:04:00;16.97;;;7.93;;
69623;SDS011;56843;52.020;5.670;2023-02-12T02:07:23;17.40;;;8.43;;
69623;SDS011;56843;52.020;5.670;2023-02-12T02:08:54;21.20;;;8.73;;
69623;SDS011;56843;52.020;5.670;2023-02-12T02:10:26;19.80;;;9.02;;
69623;SDS011;56843;52.020;5.670;2023-02-12T02:11:58;20.08;;;8.45;;
69623;SDS011;56843;52.020;5.670;2023-02-12T02:13:47;17.30;;;8.82;;
69623;SDS011;56843;52.020;5.670;2023-02-12T02:15:37;17.92;;;8.45;;
69623;SDS011;56843;52.020;5.670;2023-02-12T02:19:01;20.42;;;8.90;;
69623;SDS011;56843;52.020;5.670;2023-02-12T02:24:36;17.27;;;8.88;;
69623;SDS011;56843;52.020;5.670;2023-02-12T02:40:38;19.25;;;9.10;;
69623;SDS011;56843;52.020;5.670;2023-02-12T02:42:23;17.42;;;7.95;;
69623;SDS011;56843;52.020;5.670;2023-02-12T02:44:02;21.17;;;8.63;;
69623;SDS011;56843;52.020;5.670;2023-02-12T02:45:38;21.40;;;9.93;;
69623;SDS011;56843;52.020;5.670;2023-02-12T02:47:13;14.93;;;7.90;;
69623;SDS011;56843;52.020;5.670;2023-02-12T02:48:45;25.13;;;9.40;;
69623;SDS011;56843;52.020;5.670;2023-02-12T02:50:30;22.48;;;9.88;;
69623;SDS011;56843;52.020;5.670;2023-02-12T02:52:08;24.02;;;9.13;;
69623;SDS011;56843;52.020;5.670;2023-02-12T02:55:39;19.73;;;8.98;;
69623;SDS011;56843;52.020;5.670;2023-02-12T02:57:27;17.42;;;8.73;;
69623;SDS011;56843;52.020;5.670;2023-02-12T02:59:08;18.77;;;9.10;;
69623;SDS011;56843;52.020;5.670;2023-02-12T03:00:43;17.42;;;8.00;;
69623;SDS011;56843;52.020;5.670;2023-02-12T03:03:58;19.98;;;9.23;;
69623;SDS011;56843;52.020;5.670;2023-02-12T03:05:35;18.58;;;8.82;;
69623;SDS011;56843;52.020;5.670;2023-02-12T03:07:11;22.33;;;10.27;;
69623;SDS011;56843;52.020;5.670;2023-02-12T03:08:51;18.50;;;9.82;;
69623;SDS011;56843;52.020;5.670;2023-02-12T03:10:26;20.03;;;9.53;;
69623;SDS011;56843;52.020;5.670;2023-02-12T03:12:02;19.80;;;9.23;;
69623;SDS011;56843;52.020;5.670;2023-02-12T03:13:58;19.33;;;9.15;;
69623;SDS011;56843;52.020;5.670;2023-02-12T03:15:31;21.30;;;9.05;;
69623;SDS011;56843;52.020;5.670;2023-02-12T03:18:48;20.60;;;9.77;;
69623;SDS011;56843;52.020;5.670;2023-02-12T03:20:28;18.50;;;9.32;;
69623;SDS011;56843;52.020;5.670;2023-02-12T03:22:07;16.95;;;8.73;;
69623;SDS011;56843;52.020;5.670;2023-02-12T03:24:04;19.75;;;9.52;;
69623;SDS011;56843;52.020;5.670;2023-02-12T03:27:28;21.50;;;9.20;;
69623;SDS011;56843;52.020;5.670;2023-02-12T03:29:02;20.17;;;10.03;;
69623;SDS011;56843;52.020;5.670;2023-02-12T03:30:39;26.30;;;9.80;;
69623;SDS011;56843;52.020;5.670;2023-02-12T03:35:36;36.40;;;7.90;;
69623;SDS011;56843;52.020;5.670;2023-02-12T03:38:50;31.60;;;9.18;;
69623;SDS011;56843;52.020;5.670;2023-02-12T03:40:27;21.05;;;8.63;;
69623;SDS011;56843;52.020;5.670;2023-02-12T03:42:10;23.43;;;8.47;;
69623;SDS011;56843;52.020;5.670;2023-02-12T03:43:51;25.87;;;9.07;;
69623;SDS011;56843;52.020;5.670;2023-02-12T03:45:48;23.13;;;8.50;;
69623;SDS011;56843;52.020;5.670;2023-02-12T03:47:40;29.08;;;8.35;;
69623;SDS011;56843;52.020;5.670;2023-02-12T03:49:26;29.80;;;8.55;;
69623;SDS011;56843;52.020;5.670;2023-02-12T03:53:06;31.95;;;7.35;;
69623;SDS011;56843;52.020;5.670;2023-02-12T03:54:36;27.13;;;8.77;;
69623;SDS011;56843;52.020;5.670;2023-02-12T03:56:09;27.50;;;8.30;;
69623;SDS011;56843;52.020;5.670;2023-02-12T03:57:49;19.60;;;7.78;;
69623;SDS011;56843;52.020;5.670;2023-02-12T03:59:24;23.83;;;7.00;;
69623;SDS011;56843;52.020;5.670;2023-02-12T04:00:55;27.63;;;7.60;;
69623;SDS011;56843;52.020;5.670;2023-02-12T04:02:26;27.73;;;8.73;;
69623;SDS011;56843;52.020;5.670;2023-02-12T04:03:57;22.08;;;7.85;;
69623;SDS011;56843;52.020;5.670;2023-02-12T04:05:29;19.67;;;7.63;;
69623;SDS011;56843;52.020;5.670;2023-02-12T04:06:59;20.10;;;7.38;;
69623;SDS011;56843;52.020;5.670;2023-02-12T04:08:30;26.08;;;7.82;;
69623;SDS011;56843;52.020;5.670;2023-02-12T04:10:02;21.13;;;8.15;;
69623;SDS011;56843;52.020;5.670;2023-02-12T04:11:35;20.30;;;7.20;;
69623;SDS011;56843;52.020;5.670;2023-02-12T04:13:22;22.30;;;7.45;;
69623;SDS011;56843;52.020;5.670;2023-02-12T04:19:09;22.80;;;8.50;;
69623;SDS011;56843;52.020;5.670;2023-02-12T04:20:50;17.85;;;7.32;;
69623;SDS011;56843;52.020;5.670;2023-02-12T04:24:43;22.00;;;7.07;;
69623;SDS011;56843;52.020;5.670;2023-02-12T04:26:38;19.77;;;8.05;;
69623;SDS011;56843;52.020;5.670;2023-02-12T04:28:21;21.40;;;7.53;;
69623;SDS011;56843;52.020;5.670;2023-02-12T04:29:57;17.07;;;7.20;;
69623;SDS011;56843;52.020;5.670;2023-02-12T04:33:41;18.60;;;6.82;;
69623;SDS011;56843;52.020;5.670;2023-02-12T04:38:52;22.67;;;7.63;;
69623;SDS011;56843;52.020;5.670;2023-02-12T04:40:26;20.05;;;7.47;;
69623;SDS011;56843;52.020;5.670;2023-02-12T04:41:58;31.37;;;8.60;;
69623;SDS011;56843;52.020;5.670;2023-02-12T04:43:33;30.67;;;8.13;;
69623;SDS011;56843;52.020;5.670;2023-02-12T04:45:05;34.85;;;8.70;;
69623;SDS011;56843;52.020;5.670;2023-02-12T04:46:39;33.50;;;9.57;;
69623;SDS011;56843;52.020;5.670;2023-02-12T04:48:09;29.95;;;7.82;;
69623;SDS011;56843;52.020;5.670;2023-02-12T04:49:41;41.23;;;8.43;;
69623;SDS011;56843;52.020;5.670;2023-02-12T04:51:12;25.60;;;8.17;;
69623;SDS011;56843;52.020;5.670;2023-02-12T04:52:43;27.23;;;7.63;;
69623;SDS011;56843;52.020;5.670;2023-02-12T04:54:14;25.90;;;8.70;;
69623;SDS011;56843;52.020;5.670;2023-02-12T04:55:46;38.42;;;9.55;;
69623;SDS011;56843;52.020;5.670;2023-02-12T04:57:18;26.95;;;7.57;;
69623;SDS011;56843;52.020;5.670;2023-02-12T04:58:48;31.57;;;8.87;;
69623;SDS011;56843;52.020;5.670;2023-02-12T05:00:19;27.53;;;7.47;;
69623;SDS011;56843;52.020;5.670;2023-02-12T05:01:50;26.77;;;7.43;;
69623;SDS011;56843;52.020;5.670;2023-02-12T05:03:20;31.33;;;8.23;;
69623;SDS011;56843;52.020;5.670;2023-02-12T05:04:51;25.30;;;7.90;;
69623;SDS011;56843;52.020;5.670;2023-02-12T05:06:21;37.23;;;8.73;;
69623;SDS011;56843;52.020;5.670;2023-02-12T05:07:52;22.67;;;7.27;;
69623;SDS011;56843;52.020;5.670;2023-02-12T05:09:22;30.65;;;7.53;;
69623;SDS011;56843;52.020;5.670;2023-02-12T05:10:53;27.87;;;8.27;;
69623;SDS011;56843;52.020;5.670;2023-02-12T05:12:23;30.98;;;7.63;;
69623;SDS011;56843;52.020;5.670;2023-02-12T05:13:54;27.53;;;8.60;;
69623;SDS011;56843;52.020;5.670;2023-02-12T05:15:25;22.93;;;7.60;;
69623;SDS011;56843;52.020;5.670;2023-02-12T05:16:55;26.57;;;7.27;;
69623;SDS011;56843;52.020;5.670;2023-02-12T05:18:26;19.73;;;6.87;;
69623;SDS011;56843;52.020;5.670;2023-02-12T05:19:56;32.65;;;7.80;;
69623;SDS011;56843;52.020;5.670;2023-02-12T05:21:26;20.30;;;7.27;;
69623;SDS011;56843;52.020;5.670;2023-02-12T05:22:57;21.63;;;7.27;;
69623;SDS011;56843;52.020;5.670;2023-02-12T05:24:27;24.45;;;7.80;;
69623;SDS011;56843;52.020;5.670;2023-02-12T05:25:58;35.40;;;9.57;;
69623;SDS011;56843;52.020;5.670;2023-02-12T05:27:31;26.45;;;8.90;;
69623;SDS011;56843;52.020;5.670;2023-02-12T05:29:01;26.20;;;8.30;;
69623;SDS011;56843;52.020;5.670;2023-02-12T05:30:32;21.73;;;7.03;;
69623;SDS011;56843;52.020;5.670;2023-02-12T05:32:03;23.37;;;6.90;;
69623;SDS011;56843;52.020;5.670;2023-02-12T05:33:33;22.70;;;7.25;;
69623;SDS011;56843;52.020;5.670;2023-02-12T05:35:04;27.20;;;7.13;;
69623;SDS011;56843;52.020;5.670;2023-02-12T05:36:35;24.37;;;8.23;;
69623;SDS011;56843;52.020;5.670;2023-02-12T05:38:06;32.88;;;9.00;;
69623;SDS011;56843;52.020;5.670;2023-02-12T05:39:36;36.33;;;8.17;;
69623;SDS011;56843;52.020;5.670;2023-02-12T05:41:08;25.30;;;7.78;;
69623;SDS011;56843;52.020;5.670;2023-02-12T05:42:40;25.60;;;7.43;;
69623;SDS011;56843;52.020;5.670;2023-02-12T05:44:10;28.90;;;7.87;;
69623;SDS011;56843;52.020;5.670;2023-02-12T05:45:41;25.03;;;8.23;;
69623;SDS011;56843;52.020;5.670;2023-02-12T05:47:14;18.88;;;7.47;;
69623;SDS011;56843;52.020;5.670;2023-02-12T05:48:44;20.60;;;7.25;;
69623;SDS011;56843;52.020;5.670;2023-02-12T05:50:15;33.87;;;8.00;;
69623;SDS011;56843;52.020;5.670;2023-02-12T05:51:46;19.52;;;6.70;;
69623;SDS011;56843;52.020;5.670;2023-02-12T05:53:16;21.43;;;7.27;;
69623;SDS011;56843;52.020;5.670;2023-02-12T05:54:48;21.20;;;7.78;;
69623;SDS011;56843;52.020;5.670;2023-02-12T05:56:23;26.00;;;7.23;;
69623;SDS011;56843;52.020;5.670;2023-02-12T05:57:55;23.30;;;7.57;;
69623;SDS011;56843;52.020;5.670;2023-02-12T05:59:26;24.98;;;7.90;;
69623;SDS011;56843;52.020;5.670;2023-02-12T06:00:56;23.60;;;7.97;;
69623;SDS011;56843;52.020;5.670;2023-02-12T06:02:27;15.63;;;6.90;;
69623;SDS011;56843;52.020;5.670;2023-02-12T06:03:58;23.60;;;6.88;;
69623;SDS011;56843;52.020;5.670;2023-02-12T06:05:30;21.40;;;7.10;;
69623;SDS011;56843;52.020;5.670;2023-02-12T06:07:00;17.83;;;7.13;;
69623;SDS011;56843;52.020;5.670;2023-02-12T06:08:31;28.17;;;7.20;;
69623;SDS011;56843;52.020;5.670;2023-02-12T06:10:02;17.53;;;6.37;;
69623;SDS011;56843;52.020;5.670;2023-02-12T06:11:32;28.65;;;7.95;;
69623;SDS011;56843;52.020;5.670;2023-02-12T06:13:03;22.63;;;7.67;;
69623;SDS011;56843;52.020;5.670;2023-02-12T06:14:33;16.58;;;6.97;;
69623;SDS011;56843;52.020;5.670;2023-02-12T06:16:04;17.53;;;6.97;;
69623;SDS011;56843;52.020;5.670;2023-02-12T06:17:34;27.13;;;7.22;;
69623;SDS011;56843;52.020;5.670;2023-02-12T06:19:05;22.83;;;7.93;;
69623;SDS011;56843;52.020;5.670;2023-02-12T06:20:39;23.92;;;7.47;;
69623;SDS011;56843;52.020;5.670;2023-02-12T06:22:09;22.23;;;7.47;;
69623;SDS011;56843;52.020;5.670;2023-02-12T06:23:40;15.83;;;6.57;;
69623;SDS011;56843;52.020;5.670;2023-02-12T06:25:10;18.13;;;7.03;;
69623;SDS011;56843;52.020;5.670;2023-02-12T06:26:41;19.43;;;6.60;;
69623;SDS011;56843;52.020;5.670;2023-02-12T06:28:12;14.18;;;6.88;;
69623;SDS011;56843;52.020;5.670;2023-02-12T06:29:42;21.30;;;7.03;;
69623;SDS011;56843;52.020;5.670;2023-02-12T06:32:48;17.00;;;7.27;;
69623;SDS011;56843;52.020;5.670;2023-02-12T06:34:19;17.70;;;7.50;;
69623;SDS011;56843;52.020;5.670;2023-02-12T06:35:49;16.45;;;6.63;;
69623;SDS011;56843;52.020;5.670;2023-02-12T06:37:21;17.95;;;6.90;;
69623;SDS011;56843;52.020;5.670;2023-02-12T06:38:51;18.57;;;6.13;;
69623;SDS011;56843;52.020;5.670;2023-02-12T06:40:22;16.83;;;6.45;;
69623;SDS011;56843;52.020;5.670;2023-02-12T06:41:52;30.70;;;7.20;;
69623;SDS011;56843;52.020;5.670;2023-02-12T06:43:23;17.05;;;7.05;;
69623;SDS011;56843;52.020;5.670;2023-02-12T06:44:54;19.10;;;6.30;;
69623;SDS011;56843;52.020;5.670;2023-02-12T06:46:24;18.55;;;7.07;;
69623;SDS011;56843;52.020;5.670;2023-02-12T06:47:55;16.73;;;6.70;;
69623;SDS011;56843;52.020;5.670;2023-02-12T06:49:25;22.90;;;6.97;;
69623;SDS011;56843;52.020;5.670;2023-02-12T06:51:02;29.73;;;6.60;;
69623;SDS011;56843;52.020;5.670;2023-02-12T06:52:33;19.65;;;7.10;;
69623;SDS011;56843;52.020;5.670;2023-02-12T06:54:04;19.70;;;6.20;;
69623;SDS011;56843;52.020;5.670;2023-02-12T06:55:34;15.03;;;5.97;;
69623;SDS011;56843;52.020;5.670;2023-02-12T06:57:05;18.38;;;7.35;;
69623;SDS011;56843;52.020;5.670;2023-02-12T06:58:36;14.57;;;6.67;;
69623;SDS011;56843;52.020;5.670;2023-02-12T07:00:07;17.83;;;6.82;;
69623;SDS011;56843;52.020;5.670;2023-02-12T07:01:38;17.50;;;6.45;;
69623;SDS011;56843;52.020;5.670;2023-02-12T07:03:09;16.37;;;6.57;;
69623;SDS011;56843;52.020;5.670;2023-02-12T07:04:39;26.27;;;6.32;;
69623;SDS011;56843;52.020;5.670;2023-02-12T07:06:10;21.10;;;6.93;;
69623;SDS011;56843;52.020;5.670;2023-02-12T07:07:40;17.17;;;6.90;;
69623;SDS011;56843;52.020;5.670;2023-02-12T07:09:11;14.50;;;6.07;;
69623;SDS011;56843;52.020;5.670;2023-02-12T07:10:41;16.30;;;5.97;;
69623;SDS011;56843;52.020;5.670;2023-02-12T07:12:12;22.87;;;6.30;;
69623;SDS011;56843;52.020;5.670;2023-02-12T07:13:43;17.90;;;6.20;;
69623;SDS011;56843;52.020;5.670;2023-02-12T07:15:14;16.63;;;5.23;;
69623;SDS011;56843;52.020;5.670;2023-02-12T07:16:44;16.23;;;7.00;;
69623;SDS011;56843;52.020;5.670;2023-02-12T07:18:15;13.07;;;5.53;;
69623;SDS011;56843;52.020;5.670;2023-02-12T07:19:45;15.00;;;6.63;;
69623;SDS011;56843;52.020;5.670;2023-02-12T07:21:16;13.10;;;5.73;;
69623;SDS011;56843;52.020;5.670;2023-02-12T07:22:47;14.70;;;6.13;;
69623;SDS011;56843;52.020;5.670;2023-02-12T07:24:17;15.60;;;6.23;;
69623;SDS011;56843;52.020;5.670;2023-02-12T07:25:57;18.23;;;7.00;;
69623;SDS011;56843;52.020;5.670;2023-02-12T07:27:39;14.82;;;6.07;;
69623;SDS011;56843;52.020;5.670;2023-02-12T07:29:10;14.30;;;6.00;;
69623;SDS011;56843;52.020;5.670;2023-02-12T07:30:41;14.67;;;6.00;;
69623;SDS011;56843;52.020;5.670;2023-02-12T07:32:12;16.77;;;5.93;;
69623;SDS011;56843;52.020;5.670;2023-02-12T07:33:43;21.60;;;6.40;;
69623;SDS011;56843;52.020;5.670;2023-02-12T07:35:14;14.90;;;6.03;;
69623;SDS011;56843;52.020;5.670;2023-02-12T07:36:44;13.63;;;6.60;;
69623;SDS011;56843;52.020;5.670;2023-02-12T07:38:15;16.88;;;5.38;;
69623;SDS011;56843;52.020;5.670;2023-02-12T07:39:45;19.13;;;6.63;;
69623;SDS011;56843;52.020;5.670;2023-02-12T07:41:17;16.67;;;6.80;;
69623;SDS011;56843;52.020;5.670;2023-02-12T07:42:53;14.75;;;6.35;;
69623;SDS011;56843;52.020;5.670;2023-02-12T07:44:24;12.20;;;6.13;;
69623;SDS011;56843;52.020;5.670;2023-02-12T07:45:55;13.18;;;5.93;;
69623;SDS011;56843;52.020;5.670;2023-02-12T07:47:25;15.10;;;6.20;;
69623;SDS011;56843;52.020;5.670;2023-02-12T07:48:56;11.17;;;5.60;;
69623;SDS011;56843;52.020;5.670;2023-02-12T07:50:29;12.82;;;6.13;;
69623;SDS011;56843;52.020;5.670;2023-02-12T07:51:59;13.98;;;6.32;;
69623;SDS011;56843;52.020;5.670;2023-02-12T07:53:30;12.70;;;5.90;;
69623;SDS011;56843;52.020;5.670;2023-02-12T07:55:00;13.63;;;5.73;;
69623;SDS011;56843;52.020;5.670;2023-02-12T07:56:32;14.93;;;5.90;;
69623;SDS011;56843;52.020;5.670;2023-02-12T07:58:04;12.83;;;5.70;;
69623;SDS011;56843;52.020;5.670;2023-02-12T07:59:34;14.43;;;6.20;;
69623;SDS011;56843;52.020;5.670;2023-02-12T08:01:21;15.47;;;6.80;;
69623;SDS011;56843;52.020;5.670;2023-02-12T08:02:57;12.88;;;6.32;;
69623;SDS011;56843;52.020;5.670;2023-02-12T08:04:27;13.87;;;6.23;;
69623;SDS011;56843;52.020;5.670;2023-02-12T08:05:58;13.27;;;6.25;;
69623;SDS011;56843;52.020;5.670;2023-02-12T08:07:28;11.90;;;5.43;;
69623;SDS011;56843;52.020;5.670;2023-02-12T08:08:59;11.07;;;5.43;;
69623;SDS011;56843;52.020;5.670;2023-02-12T08:10:31;17.85;;;6.35;;
69623;SDS011;56843;52.020;5.670;2023-02-12T08:12:01;12.48;;;5.60;;
69623;SDS011;56843;52.020;5.670;2023-02-12T08:13:32;12.53;;;5.63;;
69623;SDS011;56843;52.020;5.670;2023-02-12T08:15:04;12.85;;;5.95;;
69623;SDS011;56843;52.020;5.670;2023-02-12T08:16:35;13.97;;;6.07;;
69623;SDS011;56843;52.020;5.670;2023-02-12T08:18:07;13.90;;;5.32;;
69623;SDS011;56843;52.020;5.670;2023-02-12T08:19:38;12.37;;;5.53;;
69623;SDS011;56843;52.020;5.670;2023-02-12T08:21:10;12.37;;;5.57;;
69623;SDS011;56843;52.020;5.670;2023-02-12T08:22:40;12.90;;;5.97;;
69623;SDS011;56843;52.020;5.670;2023-02-12T08:24:11;13.90;;;5.53;;
69623;SDS011;56843;52.020;5.670;2023-02-12T08:25:41;11.60;;;5.83;;
69623;SDS011;56843;52.020;5.670;2023-02-12T08:27:12;11.47;;;5.70;;
69623;SDS011;56843;52.020;5.670;2023-02-12T08:28:44;13.20;;;6.03;;
69623;SDS011;56843;52.020;5.670;2023-02-12T08:30:20;11.10;;;5.38;;
69623;SDS011;56843;52.020;5.670;2023-02-12T08:31:53;11.67;;;6.00;;
69623;SDS011;56843;52.020;5.670;2023-02-12T08:33:25;20.10;;;6.10;;
69623;SDS011;56843;52.020;5.670;2023-02-12T08:34:55;15.23;;;6.10;;
69623;SDS011;56843;52.020;5.670;2023-02-12T08:36:27;13.93;;;6.20;;
69623;SDS011;56843;52.020;5.670;2023-02-12T08:38:07;11.55;;;5.43;;
69623;SDS011;56843;52.020;5.670;2023-02-12T08:39:38;10.60;;;5.40;;
69623;SDS011;56843;52.020;5.670;2023-02-12T08:41:13;25.85;;;6.03;;
69623;SDS011;56843;52.020;5.670;2023-02-12T08:42:45;10.27;;;5.00;;
69623;SDS011;56843;52.020;5.670;2023-02-12T08:44:15;13.63;;;6.00;;
69623;SDS011;56843;52.020;5.670;2023-02-12T08:45:46;10.70;;;5.90;;
69623;SDS011;56843;52.020;5.670;2023-02-12T08:47:17;24.80;;;6.00;;
69623;SDS011;56843;52.020;5.670;2023-02-12T08:48:47;15.93;;;5.80;;
69623;SDS011;56843;52.020;5.670;2023-02-12T08:50:17;17.98;;;6.57;;
69623;SDS011;56843;52.020;5.670;2023-02-12T08:51:50;35.50;;;16.37;;
69623;SDS011;56843;52.020;5.670;2023-02-12T08:53:21;61.22;;;26.58;;
69623;SDS011;56843;52.020;5.670;2023-02-12T08:54:52;33.47;;;13.83;;
69623;SDS011;56843;52.020;5.670;2023-02-12T08:56:23;30.95;;;9.68;;
69623;SDS011;56843;52.020;5.670;2023-02-12T08:57:54;21.30;;;8.97;;
69623;SDS011;56843;52.020;5.670;2023-02-12T08:59:27;21.30;;;10.17;;
69623;SDS011;56843;52.020;5.670;2023-02-12T09:00:57;21.27;;;9.25;;
69623;SDS011;56843;52.020;5.670;2023-02-12T09:02:28;16.13;;;7.27;;
69623;SDS011;56843;52.020;5.670;2023-02-12T09:03:58;16.38;;;7.97;;
69623;SDS011;56843;52.020;5.670;2023-02-12T09:05:29;15.33;;;6.90;;
69623;SDS011;56843;52.020;5.670;2023-02-12T09:07:00;15.00;;;7.47;;
69623;SDS011;56843;52.020;5.670;2023-02-12T09:08:31;16.20;;;7.53;;
69623;SDS011;56843;52.020;5.670;2023-02-12T09:10:01;15.03;;;7.00;;
69623;SDS011;56843;52.020;5.670;2023-02-12T09:11:32;12.98;;;7.00;;
69623;SDS011;56843;52.020;5.670;2023-02-12T09:13:04;14.23;;;6.90;;
69623;SDS011;56843;52.020;5.670;2023-02-12T09:14:35;11.20;;;6.20;;
69623;SDS011;56843;52.020;5.670;2023-02-12T09:16:06;14.57;;;6.87;;
69623;SDS011;56843;52.020;5.670;2023-02-12T09:17:37;12.43;;;6.30;;
69623;SDS011;56843;52.020;5.670;2023-02-12T09:19:11;13.88;;;6.47;;
69623;SDS011;56843;52.020;5.670;2023-02-12T09:20:43;17.80;;;7.00;;
69623;SDS011;56843;52.020;5.670;2023-02-12T09:22:14;13.90;;;7.00;;
69623;SDS011;56843;52.020;5.670;2023-02-12T09:23:44;13.07;;;6.60;;
69623;SDS011;56843;52.020;5.670;2023-02-12T09:25:16;13.48;;;6.80;;
69623;SDS011;56843;52.020;5.670;2023-02-12T09:26:46;12.20;;;6.13;;
69623;SDS011;56843;52.020;5.670;2023-02-12T09:28:17;13.80;;;7.10;;
69623;SDS011;56843;52.020;5.670;2023-02-12T09:29:47;14.20;;;6.40;;
69623;SDS011;56843;52.020;5.670;2023-02-12T09:31:19;13.77;;;7.20;;
69623;SDS011;56843;52.020;5.670;2023-02-12T09:32:55;12.98;;;6.53;;
69623;SDS011;56843;52.020;5.670;2023-02-12T09:34:25;12.93;;;6.95;;
69623;SDS011;56843;52.020;5.670;2023-02-12T09:35:59;12.83;;;6.67;;
69623;SDS011;56843;52.020;5.670;2023-02-12T09:37:38;13.18;;;6.95;;
69623;SDS011;56843;52.020;5.670;2023-02-12T09:39:13;13.13;;;6.75;;
69623;SDS011;56843;52.020;5.670;2023-02-12T09:40:47;12.43;;;6.50;;
69623;SDS011;56843;52.020;5.670;2023-02-12T09:44:20;12.15;;;6.72;;
69623;SDS011;56843;52.020;5.670;2023-02-12T09:46:04;14.95;;;7.05;;
69623;SDS011;56843;52.020;5.670;2023-02-12T09:48:16;13.45;;;7.28;;
69623;SDS011;56843;52.020;5.670;2023-02-12T09:51:23;13.27;;;6.82;;
69623;SDS011;56843;52.020;5.670;2023-02-12T09:52:57;12.45;;;6.68;;
69623;SDS011;56843;52.020;5.670;2023-02-12T09:54:33;15.32;;;7.13;;
69623;SDS011;56843;52.020;5.670;2023-02-12T09:56:10;13.73;;;7.28;;
69623;SDS011;56843;52.020;5.670;2023-02-12T09:57:42;15.83;;;7.90;;
69623;SDS011;56843;52.020;5.670;2023-02-12T09:59:21;15.57;;;7.90;;
69623;SDS011;56843;52.020;5.670;2023-02-12T10:01:16;16.40;;;8.30;;
69623;SDS011;56843;52.020;5.670;2023-02-12T10:02:50;15.27;;;8.02;;
69623;SDS011;56843;52.020;5.670;2023-02-12T10:04:23;16.30;;;7.20;;
69623;SDS011;56843;52.020;5.670;2023-02-12T10:06:00;14.85;;;7.10;;
69623;SDS011;56843;52.020;5.670;2023-02-12T10:07:52;17.42;;;7.93;;
69623;SDS011;56843;52.020;5.670;2023-02-12T10:11:39;16.25;;;8.60;;
69623;SDS011;56843;52.020;5.670;2023-02-12T10:13:34;15.98;;;8.20;;